sensor_id;sensor_type;location;lat;lon;timestamp;P1;durP1;ratioP1;P2;durP2;ratioP2
15077;SDS011;7638;49.760;8.646;2023-05-02T00:08:08;2.47;;;2.03;;
15077;SDS011;7638;49.760;8.646;2023-05-02T00:10:34;2.10;;;1.90;;
15077;SDS011;7638;49.760;8.646;2023-05-02T00:13:00;2.43;;;2.10;;
15077;SDS011;7638;49.760;8.646;2023-05-02T00:15:26;3.87;;;2.20;;
15077;SDS011;7638;49.760;8.646;2023-05-02T00:17:52;4.03;;;2.30;;
15077;SDS011;7638;49.760;8.646;2023-05-02T00:20:18;2.20;;;2.00;;
15077;SDS011;7638;49.760;8.646;2023-05-02T00:22:44;2.60;;;2.40;;
15077;SDS011;7638;49.760;8.646;2023-05-02T00:25:10;2.97;;;1.97;;
15077;SDS011;7638;49.760;8.646;2023-05-02T00:27:40;2.23;;;1.83;;
15077;SDS011;7638;49.760;8.646;2023-05-02T00:30:07;2.10;;;1.90;;
15077;SDS011;7638;49.760;8.646;2023-05-02T00:35:37;2.60;;;2.10;;
15077;SDS011;7638;49.760;8.646;2023-05-02T00:38:03;2.70;;;2.50;;
15077;SDS011;7638;49.760;8.646;2023-05-02T00:40:29;2.93;;;2.37;;
15077;SDS011;7638;49.760;8.646;2023-05-02T00:42:55;3.00;;;2.27;;
15077;SDS011;7638;49.760;8.646;2023-05-02T00:45:21;3.13;;;2.53;;
15077;SDS011;7638;49.760;8.646;2023-05-02T00:47:48;3.73;;;2.87;;
15077;SDS011;7638;49.760;8.646;2023-05-02T00:50:14;5.17;;;2.57;;
15077;SDS011;7638;49.760;8.646;2023-05-02T00:52:40;2.80;;;2.23;;
15077;SDS011;7638;49.760;8.646;2023-05-02T00:55:06;3.07;;;2.73;;
15077;SDS011;7638;49.760;8.646;2023-05-02T00:57:33;3.20;;;2.90;;
15077;SDS011;7638;49.760;8.646;2023-05-02T00:59:58;3.03;;;2.60;;
15077;SDS011;7638;49.760;8.646;2023-05-02T01:08:33;4.40;;;2.70;;
15077;SDS011;7638;49.760;8.646;2023-05-02T01:11:11;3.77;;;3.10;;
15077;SDS011;7638;49.760;8.646;2023-05-02T01:13:39;4.40;;;2.90;;
15077;SDS011;7638;49.760;8.646;2023-05-02T01:16:07;3.80;;;3.40;;
15077;SDS011;7638;49.760;8.646;2023-05-02T01:18:36;3.30;;;2.57;;
15077;SDS011;7638;49.760;8.646;2023-05-02T01:21:06;4.40;;;2.70;;
15077;SDS011;7638;49.760;8.646;2023-05-02T01:31:10;4.73;;;2.67;;
15077;SDS011;7638;49.760;8.646;2023-05-02T01:33:36;3.53;;;3.00;;
15077;SDS011;7638;49.760;8.646;2023-05-02T01:36:03;6.00;;;2.87;;
15077;SDS011;7638;49.760;8.646;2023-05-02T01:38:30;3.43;;;3.13;;
15077;SDS011;7638;49.760;8.646;2023-05-02T01:40:57;4.63;;;3.00;;
15077;SDS011;7638;49.760;8.646;2023-05-02T01:43:27;6.77;;;2.80;;
15077;SDS011;7638;49.760;8.646;2023-05-02T01:45:54;4.73;;;3.23;;
15077;SDS011;7638;49.760;8.646;2023-05-02T01:48:22;3.80;;;3.40;;
15077;SDS011;7638;49.760;8.646;2023-05-02T01:50:48;3.60;;;3.17;;
15077;SDS011;7638;49.760;8.646;2023-05-02T01:53:15;3.03;;;2.67;;
15077;SDS011;7638;49.760;8.646;2023-05-02T01:55:42;3.43;;;2.93;;
15077;SDS011;7638;49.760;8.646;2023-05-02T01:58:09;3.37;;;2.93;;
15077;SDS011;7638;49.760;8.646;2023-05-02T02:00:37;2.73;;;2.53;;
15077;SDS011;7638;49.760;8.646;2023-05-02T02:03:06;4.17;;;2.90;;
15077;SDS011;7638;49.760;8.646;2023-05-02T02:05:34;3.37;;;2.83;;
15077;SDS011;7638;49.760;8.646;2023-05-02T02:08:01;3.57;;;3.20;;
15077;SDS011;7638;49.760;8.646;2023-05-02T02:10:28;4.43;;;3.17;;
15077;SDS011;7638;49.760;8.646;2023-05-02T02:13:00;4.07;;;3.10;;
15077;SDS011;7638;49.760;8.646;2023-05-02T02:15:30;3.87;;;2.97;;
15077;SDS011;7638;49.760;8.646;2023-05-02T02:20:25;3.40;;;3.10;;
15077;SDS011;7638;49.760;8.646;2023-05-02T02:22:52;3.10;;;2.80;;
15077;SDS011;7638;49.760;8.646;2023-05-02T02:25:18;4.07;;;3.53;;
15077;SDS011;7638;49.760;8.646;2023-05-02T02:27:44;5.77;;;3.87;;
15077;SDS011;7638;49.760;8.646;2023-05-02T02:30:10;4.53;;;3.40;;
15077;SDS011;7638;49.760;8.646;2023-05-02T02:35:41;6.17;;;3.53;;
15077;SDS011;7638;49.760;8.646;2023-05-02T02:38:18;5.67;;;4.40;;
15077;SDS011;7638;49.760;8.646;2023-05-02T02:43:15;8.43;;;5.30;;
15077;SDS011;7638;49.760;8.646;2023-05-02T02:45:50;5.43;;;4.93;;
15077;SDS011;7638;49.760;8.646;2023-05-02T02:53:18;5.47;;;3.80;;
15077;SDS011;7638;49.760;8.646;2023-05-02T02:55:56;4.63;;;3.90;;
15077;SDS011;7638;49.760;8.646;2023-05-02T03:06:57;5.40;;;4.00;;
15077;SDS011;7638;49.760;8.646;2023-05-02T03:09:23;6.00;;;3.80;;
15077;SDS011;7638;49.760;8.646;2023-05-02T03:11:51;4.80;;;4.33;;
15077;SDS011;7638;49.760;8.646;2023-05-02T03:14:17;4.73;;;4.23;;
15077;SDS011;7638;49.760;8.646;2023-05-02T03:16:43;6.10;;;4.93;;
15077;SDS011;7638;49.760;8.646;2023-05-02T03:19:09;6.23;;;5.63;;
15077;SDS011;7638;49.760;8.646;2023-05-02T03:21:35;4.37;;;3.87;;
15077;SDS011;7638;49.760;8.646;2023-05-02T03:24:02;6.93;;;4.77;;
15077;SDS011;7638;49.760;8.646;2023-05-02T03:26:28;6.40;;;5.57;;
15077;SDS011;7638;49.760;8.646;2023-05-02T03:28:54;6.37;;;5.30;;
15077;SDS011;7638;49.760;8.646;2023-05-02T03:34:24;7.83;;;5.50;;
15077;SDS011;7638;49.760;8.646;2023-05-02T03:36:50;7.43;;;6.40;;
15077;SDS011;7638;49.760;8.646;2023-05-02T03:39:16;8.30;;;6.37;;
15077;SDS011;7638;49.760;8.646;2023-05-02T03:41:42;8.23;;;6.80;;
15077;SDS011;7638;49.760;8.646;2023-05-02T03:44:08;7.57;;;6.70;;
15077;SDS011;7638;49.760;8.646;2023-05-02T03:46:34;7.17;;;6.10;;
15077;SDS011;7638;49.760;8.646;2023-05-02T03:49:00;7.73;;;6.40;;
15077;SDS011;7638;49.760;8.646;2023-05-02T03:51:26;5.80;;;5.20;;
15077;SDS011;7638;49.760;8.646;2023-05-02T03:53:52;7.63;;;5.87;;
15077;SDS011;7638;49.760;8.646;2023-05-02T03:56:18;6.30;;;5.57;;
15077;SDS011;7638;49.760;8.646;2023-05-02T03:58:45;8.20;;;6.37;;
15077;SDS011;7638;49.760;8.646;2023-05-02T04:01:14;7.13;;;5.70;;
15077;SDS011;7638;49.760;8.646;2023-05-02T04:03:41;6.43;;;5.77;;
15077;SDS011;7638;49.760;8.646;2023-05-02T04:06:07;6.57;;;5.57;;
15077;SDS011;7638;49.760;8.646;2023-05-02T04:08:34;6.63;;;5.43;;
15077;SDS011;7638;49.760;8.646;2023-05-02T04:11:00;6.77;;;5.27;;
15077;SDS011;7638;49.760;8.646;2023-05-02T04:13:26;7.53;;;5.83;;
15077;SDS011;7638;49.760;8.646;2023-05-02T04:15:53;6.00;;;5.40;;
15077;SDS011;7638;49.760;8.646;2023-05-02T04:18:19;11.67;;;6.40;;
15077;SDS011;7638;49.760;8.646;2023-05-02T04:20:45;8.03;;;6.27;;
15077;SDS011;7638;49.760;8.646;2023-05-02T04:23:11;7.77;;;6.43;;
15077;SDS011;7638;49.760;8.646;2023-05-02T04:25:37;7.97;;;6.97;;
15077;SDS011;7638;49.760;8.646;2023-05-02T04:28:03;7.97;;;6.10;;
15077;SDS011;7638;49.760;8.646;2023-05-02T04:30:29;6.57;;;5.80;;
15077;SDS011;7638;49.760;8.646;2023-05-02T04:39:03;9.97;;;7.80;;
15077;SDS011;7638;49.760;8.646;2023-05-02T04:41:31;11.93;;;8.73;;
15077;SDS011;7638;49.760;8.646;2023-05-02T04:43:57;10.17;;;8.70;;
15077;SDS011;7638;49.760;8.646;2023-05-02T04:46:23;14.43;;;9.93;;
15077;SDS011;7638;49.760;8.646;2023-05-02T04:48:49;14.07;;;11.53;;
15077;SDS011;7638;49.760;8.646;2023-05-02T04:51:15;13.70;;;10.60;;
15077;SDS011;7638;49.760;8.646;2023-05-02T04:53:41;16.03;;;11.23;;
15077;SDS011;7638;49.760;8.646;2023-05-02T04:56:07;22.97;;;14.90;;
15077;SDS011;7638;49.760;8.646;2023-05-02T04:58:33;20.90;;;15.63;;
15077;SDS011;7638;49.760;8.646;2023-05-02T05:06:57;20.10;;;14.57;;
15077;SDS011;7638;49.760;8.646;2023-05-02T05:09:23;22.73;;;15.43;;
15077;SDS011;7638;49.760;8.646;2023-05-02T05:11:49;20.23;;;14.37;;
15077;SDS011;7638;49.760;8.646;2023-05-02T05:14:15;24.03;;;13.93;;
15077;SDS011;7638;49.760;8.646;2023-05-02T05:16:41;20.07;;;14.60;;
15077;SDS011;7638;49.760;8.646;2023-05-02T05:19:07;18.27;;;13.97;;
15077;SDS011;7638;49.760;8.646;2023-05-02T05:21:33;20.63;;;15.07;;
15077;SDS011;7638;49.760;8.646;2023-05-02T05:24:00;21.27;;;14.17;;
15077;SDS011;7638;49.760;8.646;2023-05-02T05:26:27;19.80;;;13.73;;
15077;SDS011;7638;49.760;8.646;2023-05-02T05:28:53;20.77;;;13.90;;
15077;SDS011;7638;49.760;8.646;2023-05-02T05:34:23;22.97;;;15.90;;
15077;SDS011;7638;49.760;8.646;2023-05-02T05:36:49;22.80;;;16.20;;
15077;SDS011;7638;49.760;8.646;2023-05-02T05:39:15;21.37;;;15.77;;
15077;SDS011;7638;49.760;8.646;2023-05-02T05:41:41;22.80;;;16.83;;
15077;SDS011;7638;49.760;8.646;2023-05-02T05:44:07;21.63;;;16.77;;
15077;SDS011;7638;49.760;8.646;2023-05-02T05:46:33;26.57;;;16.37;;
15077;SDS011;7638;49.760;8.646;2023-05-02T05:48:59;24.47;;;17.53;;
15077;SDS011;7638;49.760;8.646;2023-05-02T05:51:25;18.77;;;14.30;;
15077;SDS011;7638;49.760;8.646;2023-05-02T05:53:51;28.87;;;20.10;;
15077;SDS011;7638;49.760;8.646;2023-05-02T05:56:18;28.80;;;19.90;;
15077;SDS011;7638;49.760;8.646;2023-05-02T05:58:44;20.53;;;14.90;;
15077;SDS011;7638;49.760;8.646;2023-05-02T06:01:10;23.43;;;16.30;;
15077;SDS011;7638;49.760;8.646;2023-05-02T06:03:36;21.23;;;16.27;;
15077;SDS011;7638;49.760;8.646;2023-05-02T06:06:02;22.33;;;17.40;;
15077;SDS011;7638;49.760;8.646;2023-05-02T06:08:28;23.50;;;16.47;;
15077;SDS011;7638;49.760;8.646;2023-05-02T06:10:54;25.33;;;17.87;;
15077;SDS011;7638;49.760;8.646;2023-05-02T06:13:20;25.97;;;17.33;;
15077;SDS011;7638;49.760;8.646;2023-05-02T06:15:46;25.20;;;18.00;;
15077;SDS011;7638;49.760;8.646;2023-05-02T06:18:12;29.50;;;19.70;;
15077;SDS011;7638;49.760;8.646;2023-05-02T06:20:39;26.30;;;18.70;;
15077;SDS011;7638;49.760;8.646;2023-05-02T06:23:05;24.70;;;18.57;;
15077;SDS011;7638;49.760;8.646;2023-05-02T06:25:31;23.90;;;18.57;;
15077;SDS011;7638;49.760;8.646;2023-05-02T06:27:58;23.23;;;17.60;;
15077;SDS011;7638;49.760;8.646;2023-05-02T06:30:23;24.37;;;19.07;;
15077;SDS011;7638;49.760;8.646;2023-05-02T06:32:51;26.17;;;19.23;;
15077;SDS011;7638;49.760;8.646;2023-05-02T06:35:17;23.40;;;17.70;;
15077;SDS011;7638;49.760;8.646;2023-05-02T06:37:43;26.03;;;19.77;;
15077;SDS011;7638;49.760;8.646;2023-05-02T06:40:09;26.43;;;18.33;;
15077;SDS011;7638;49.760;8.646;2023-05-02T06:42:35;30.30;;;18.50;;
15077;SDS011;7638;49.760;8.646;2023-05-02T06:45:01;27.53;;;19.20;;
15077;SDS011;7638;49.760;8.646;2023-05-02T06:47:27;27.50;;;20.00;;
15077;SDS011;7638;49.760;8.646;2023-05-02T06:49:53;23.23;;;18.33;;
15077;SDS011;7638;49.760;8.646;2023-05-02T06:52:19;26.97;;;20.67;;
15077;SDS011;7638;49.760;8.646;2023-05-02T06:54:45;28.83;;;20.40;;
15077;SDS011;7638;49.760;8.646;2023-05-02T06:57:11;29.20;;;20.10;;
15077;SDS011;7638;49.760;8.646;2023-05-02T06:59:37;28.13;;;21.80;;
15077;SDS011;7638;49.760;8.646;2023-05-02T07:02:03;32.57;;;21.70;;
15077;SDS011;7638;49.760;8.646;2023-05-02T07:04:29;26.73;;;19.23;;
15077;SDS011;7638;49.760;8.646;2023-05-02T07:06:55;34.67;;;22.97;;
15077;SDS011;7638;49.760;8.646;2023-05-02T07:09:21;33.37;;;23.03;;
15077;SDS011;7638;49.760;8.646;2023-05-02T07:11:47;32.77;;;22.17;;
15077;SDS011;7638;49.760;8.646;2023-05-02T07:14:13;39.23;;;23.83;;
15077;SDS011;7638;49.760;8.646;2023-05-02T07:16:39;37.17;;;23.83;;
15077;SDS011;7638;49.760;8.646;2023-05-02T07:19:05;33.53;;;22.40;;
15077;SDS011;7638;49.760;8.646;2023-05-02T07:21:31;37.03;;;23.50;;
15077;SDS011;7638;49.760;8.646;2023-05-02T07:23:57;32.30;;;20.73;;
15077;SDS011;7638;49.760;8.646;2023-05-02T07:26:23;33.30;;;23.50;;
15077;SDS011;7638;49.760;8.646;2023-05-02T07:28:51;36.17;;;22.33;;
15077;SDS011;7638;49.760;8.646;2023-05-02T07:31:18;31.13;;;21.97;;
15077;SDS011;7638;49.760;8.646;2023-05-02T07:33:44;32.90;;;21.37;;
15077;SDS011;7638;49.760;8.646;2023-05-02T07:36:10;35.27;;;22.53;;
15077;SDS011;7638;49.760;8.646;2023-05-02T07:38:36;30.40;;;22.03;;
15077;SDS011;7638;49.760;8.646;2023-05-02T07:41:02;32.40;;;21.73;;
15077;SDS011;7638;49.760;8.646;2023-05-02T07:43:28;33.70;;;22.27;;
15077;SDS011;7638;49.760;8.646;2023-05-02T07:45:54;35.20;;;23.23;;
15077;SDS011;7638;49.760;8.646;2023-05-02T07:48:20;34.40;;;24.10;;
15077;SDS011;7638;49.760;8.646;2023-05-02T07:50:46;36.60;;;22.43;;
15077;SDS011;7638;49.760;8.646;2023-05-02T07:53:12;35.70;;;23.10;;
15077;SDS011;7638;49.760;8.646;2023-05-02T07:55:38;31.23;;;22.30;;
15077;SDS011;7638;49.760;8.646;2023-05-02T07:58:04;40.40;;;22.90;;
15077;SDS011;7638;49.760;8.646;2023-05-02T08:00:30;36.33;;;23.20;;
15077;SDS011;7638;49.760;8.646;2023-05-02T08:02:56;34.63;;;22.80;;
15077;SDS011;7638;49.760;8.646;2023-05-02T08:05:22;33.00;;;21.40;;
15077;SDS011;7638;49.760;8.646;2023-05-02T08:07:49;29.20;;;20.37;;
15077;SDS011;7638;49.760;8.646;2023-05-02T08:10:15;33.70;;;22.60;;
15077;SDS011;7638;49.760;8.646;2023-05-02T08:12:41;28.70;;;19.87;;
15077;SDS011;7638;49.760;8.646;2023-05-02T08:15:07;29.20;;;18.93;;
15077;SDS011;7638;49.760;8.646;2023-05-02T08:17:34;31.27;;;19.50;;
15077;SDS011;7638;49.760;8.646;2023-05-02T08:20:00;26.93;;;18.20;;
15077;SDS011;7638;49.760;8.646;2023-05-02T08:22:26;29.97;;;20.20;;
15077;SDS011;7638;49.760;8.646;2023-05-02T08:24:52;29.53;;;19.53;;
15077;SDS011;7638;49.760;8.646;2023-05-02T08:27:18;35.63;;;19.60;;
15077;SDS011;7638;49.760;8.646;2023-05-02T08:29:44;28.07;;;18.67;;
15077;SDS011;7638;49.760;8.646;2023-05-02T08:32:10;30.03;;;19.07;;
15077;SDS011;7638;49.760;8.646;2023-05-02T08:34:36;33.70;;;19.90;;
15077;SDS011;7638;49.760;8.646;2023-05-02T08:37:06;30.17;;;19.30;;
15077;SDS011;7638;49.760;8.646;2023-05-02T08:39:33;29.17;;;18.50;;
15077;SDS011;7638;49.760;8.646;2023-05-02T08:41:58;29.63;;;18.37;;
15077;SDS011;7638;49.760;8.646;2023-05-02T08:44:25;31.23;;;18.40;;
15077;SDS011;7638;49.760;8.646;2023-05-02T08:46:51;29.30;;;17.90;;
15077;SDS011;7638;49.760;8.646;2023-05-02T08:49:17;26.93;;;17.90;;
15077;SDS011;7638;49.760;8.646;2023-05-02T08:51:43;27.27;;;16.80;;
15077;SDS011;7638;49.760;8.646;2023-05-02T08:54:09;29.93;;;18.40;;
15077;SDS011;7638;49.760;8.646;2023-05-02T08:56:36;24.87;;;15.73;;
15077;SDS011;7638;49.760;8.646;2023-05-02T08:59:02;28.63;;;17.10;;
15077;SDS011;7638;49.760;8.646;2023-05-02T09:01:29;23.70;;;15.57;;
15077;SDS011;7638;49.760;8.646;2023-05-02T09:03:55;25.73;;;15.90;;
15077;SDS011;7638;49.760;8.646;2023-05-02T09:06:23;22.17;;;13.70;;
15077;SDS011;7638;49.760;8.646;2023-05-02T09:08:50;21.53;;;13.57;;
15077;SDS011;7638;49.760;8.646;2023-05-02T09:11:17;19.93;;;12.13;;
15077;SDS011;7638;49.760;8.646;2023-05-02T09:13:46;18.80;;;10.93;;
15077;SDS011;7638;49.760;8.646;2023-05-02T09:16:13;15.37;;;10.90;;
15077;SDS011;7638;49.760;8.646;2023-05-02T09:18:43;18.17;;;12.03;;
15077;SDS011;7638;49.760;8.646;2023-05-02T09:21:11;18.93;;;12.70;;
15077;SDS011;7638;49.760;8.646;2023-05-02T09:23:38;16.93;;;11.50;;
15077;SDS011;7638;49.760;8.646;2023-05-02T09:26:12;18.77;;;11.77;;
15077;SDS011;7638;49.760;8.646;2023-05-02T09:28:39;17.50;;;11.50;;
15077;SDS011;7638;49.760;8.646;2023-05-02T09:31:08;23.30;;;12.73;;
15077;SDS011;7638;49.760;8.646;2023-05-02T09:33:34;18.03;;;11.23;;
15077;SDS011;7638;49.760;8.646;2023-05-02T09:36:00;22.63;;;12.47;;
15077;SDS011;7638;49.760;8.646;2023-05-02T09:38:26;16.67;;;10.70;;
15077;SDS011;7638;49.760;8.646;2023-05-02T09:40:53;17.27;;;11.30;;
15077;SDS011;7638;49.760;8.646;2023-05-02T09:43:22;19.73;;;11.57;;
15077;SDS011;7638;49.760;8.646;2023-05-02T09:48:24;19.77;;;9.77;;
15077;SDS011;7638;49.760;8.646;2023-05-02T09:50:50;17.93;;;10.53;;
15077;SDS011;7638;49.760;8.646;2023-05-02T09:53:16;18.33;;;10.17;;
15077;SDS011;7638;49.760;8.646;2023-05-02T09:55:42;17.80;;;10.13;;
15077;SDS011;7638;49.760;8.646;2023-05-02T09:58:18;18.07;;;11.03;;
15077;SDS011;7638;49.760;8.646;2023-05-02T10:00:45;16.93;;;10.37;;
15077;SDS011;7638;49.760;8.646;2023-05-02T10:03:14;16.00;;;9.87;;
15077;SDS011;7638;49.760;8.646;2023-05-02T10:05:41;19.50;;;10.90;;
15077;SDS011;7638;49.760;8.646;2023-05-02T10:08:07;15.40;;;10.00;;
15077;SDS011;7638;49.760;8.646;2023-05-02T10:10:38;15.20;;;8.80;;
15077;SDS011;7638;49.760;8.646;2023-05-02T10:13:04;14.67;;;8.27;;
15077;SDS011;7638;49.760;8.646;2023-05-02T10:15:31;12.77;;;8.07;;
15077;SDS011;7638;49.760;8.646;2023-05-02T10:17:58;17.60;;;8.53;;
15077;SDS011;7638;49.760;8.646;2023-05-02T10:20:34;16.30;;;9.33;;
15077;SDS011;7638;49.760;8.646;2023-05-02T10:23:01;16.03;;;8.83;;
15077;SDS011;7638;49.760;8.646;2023-05-02T10:25:27;17.20;;;10.30;;
15077;SDS011;7638;49.760;8.646;2023-05-02T10:27:55;13.73;;;8.60;;
15077;SDS011;7638;49.760;8.646;2023-05-02T10:30:23;14.07;;;8.93;;
15077;SDS011;7638;49.760;8.646;2023-05-02T10:32:50;19.23;;;10.40;;
15077;SDS011;7638;49.760;8.646;2023-05-02T10:35:17;15.97;;;9.70;;
15077;SDS011;7638;49.760;8.646;2023-05-02T10:37:43;16.87;;;8.87;;
15077;SDS011;7638;49.760;8.646;2023-05-02T10:40:10;11.63;;;7.70;;
15077;SDS011;7638;49.760;8.646;2023-05-02T10:42:37;14.17;;;9.33;;
15077;SDS011;7638;49.760;8.646;2023-05-02T10:45:04;12.07;;;7.70;;
15077;SDS011;7638;49.760;8.646;2023-05-02T10:47:30;14.63;;;8.80;;
15077;SDS011;7638;49.760;8.646;2023-05-02T10:49:58;15.53;;;8.87;;
15077;SDS011;7638;49.760;8.646;2023-05-02T10:52:31;12.67;;;8.70;;
15077;SDS011;7638;49.760;8.646;2023-05-02T11:02:54;14.07;;;8.83;;
15077;SDS011;7638;49.760;8.646;2023-05-02T11:05:23;13.33;;;8.03;;
15077;SDS011;7638;49.760;8.646;2023-05-02T11:07:49;14.10;;;9.13;;
15077;SDS011;7638;49.760;8.646;2023-05-02T11:10:35;13.63;;;8.10;;
15077;SDS011;7638;49.760;8.646;2023-05-02T11:13:01;13.73;;;8.40;;
15077;SDS011;7638;49.760;8.646;2023-05-02T11:17:57;14.73;;;8.43;;
15077;SDS011;7638;49.760;8.646;2023-05-02T11:20:25;12.90;;;8.70;;
15077;SDS011;7638;49.760;8.646;2023-05-02T11:22:51;12.97;;;8.20;;
15077;SDS011;7638;49.760;8.646;2023-05-02T11:25:30;11.30;;;7.80;;
15077;SDS011;7638;49.760;8.646;2023-05-02T11:27:56;14.03;;;8.07;;
15077;SDS011;7638;49.760;8.646;2023-05-02T11:30:36;14.83;;;8.03;;
15077;SDS011;7638;49.760;8.646;2023-05-02T11:35:31;14.23;;;8.57;;
15077;SDS011;7638;49.760;8.646;2023-05-02T11:38:04;15.33;;;8.67;;
15077;SDS011;7638;49.760;8.646;2023-05-02T11:40:30;13.30;;;8.23;;
15077;SDS011;7638;49.760;8.646;2023-05-02T11:42:57;14.07;;;8.00;;
15077;SDS011;7638;49.760;8.646;2023-05-02T11:45:36;16.47;;;7.70;;
15077;SDS011;7638;49.760;8.646;2023-05-02T11:48:09;12.13;;;7.43;;
15077;SDS011;7638;49.760;8.646;2023-05-02T11:53:14;11.47;;;7.13;;
15077;SDS011;7638;49.760;8.646;2023-05-02T11:55:44;7.67;;;5.53;;
15077;SDS011;7638;49.760;8.646;2023-05-02T11:58:14;13.77;;;6.80;;
15077;SDS011;7638;49.760;8.646;2023-05-02T12:00:41;8.43;;;6.40;;
15077;SDS011;7638;49.760;8.646;2023-05-02T12:03:18;10.17;;;6.73;;
15077;SDS011;7638;49.760;8.646;2023-05-02T12:05:44;11.77;;;6.53;;
15077;SDS011;7638;49.760;8.646;2023-05-02T12:08:16;9.30;;;5.80;;
15077;SDS011;7638;49.760;8.646;2023-05-02T12:10:43;9.30;;;5.73;;
15077;SDS011;7638;49.760;8.646;2023-05-02T12:13:09;9.03;;;5.80;;
15077;SDS011;7638;49.760;8.646;2023-05-02T12:15:36;9.17;;;5.40;;
15077;SDS011;7638;49.760;8.646;2023-05-02T12:18:02;10.27;;;5.77;;
15077;SDS011;7638;49.760;8.646;2023-05-02T12:20:28;7.93;;;5.40;;
15077;SDS011;7638;49.760;8.646;2023-05-02T12:22:54;9.07;;;5.07;;
15077;SDS011;7638;49.760;8.646;2023-05-02T12:25:21;8.37;;;5.47;;
15077;SDS011;7638;49.760;8.646;2023-05-02T12:28:00;8.63;;;5.47;;
15077;SDS011;7638;49.760;8.646;2023-05-02T12:30:26;7.13;;;4.87;;
15077;SDS011;7638;49.760;8.646;2023-05-02T12:32:56;7.43;;;5.13;;
15077;SDS011;7638;49.760;8.646;2023-05-02T12:35:23;6.90;;;5.40;;
15077;SDS011;7638;49.760;8.646;2023-05-02T12:37:49;8.53;;;5.20;;
15077;SDS011;7638;49.760;8.646;2023-05-02T12:40:15;7.83;;;5.13;;
15077;SDS011;7638;49.760;8.646;2023-05-02T12:42:41;8.13;;;4.77;;
15077;SDS011;7638;49.760;8.646;2023-05-02T12:45:17;7.63;;;4.57;;
15077;SDS011;7638;49.760;8.646;2023-05-02T12:47:44;7.00;;;3.87;;
15077;SDS011;7638;49.760;8.646;2023-05-02T12:50:13;5.43;;;4.10;;
15077;SDS011;7638;49.760;8.646;2023-05-02T12:52:51;6.60;;;4.80;;
15077;SDS011;7638;49.760;8.646;2023-05-02T12:55:22;6.70;;;4.47;;
15077;SDS011;7638;49.760;8.646;2023-05-02T12:57:49;6.90;;;4.97;;
15077;SDS011;7638;49.760;8.646;2023-05-02T13:00:15;5.83;;;4.23;;
15077;SDS011;7638;49.760;8.646;2023-05-02T13:02:41;8.13;;;4.57;;
15077;SDS011;7638;49.760;8.646;2023-05-02T13:05:13;5.03;;;3.37;;
15077;SDS011;7638;49.760;8.646;2023-05-02T13:07:40;4.23;;;3.37;;
15077;SDS011;7638;49.760;8.646;2023-05-02T13:10:06;5.60;;;4.00;;
15077;SDS011;7638;49.760;8.646;2023-05-02T13:12:32;4.37;;;3.07;;
15077;SDS011;7638;49.760;8.646;2023-05-02T13:15:01;4.03;;;3.33;;
15077;SDS011;7638;49.760;8.646;2023-05-02T13:17:28;5.33;;;3.67;;
15077;SDS011;7638;49.760;8.646;2023-05-02T13:19:53;5.10;;;3.00;;
15077;SDS011;7638;49.760;8.646;2023-05-02T13:22:20;5.17;;;3.37;;
15077;SDS011;7638;49.760;8.646;2023-05-02T13:24:46;4.03;;;3.07;;
15077;SDS011;7638;49.760;8.646;2023-05-02T13:27:12;3.33;;;2.73;;
15077;SDS011;7638;49.760;8.646;2023-05-02T13:29:38;7.83;;;4.07;;
15077;SDS011;7638;49.760;8.646;2023-05-02T13:32:04;7.80;;;5.20;;
15077;SDS011;7638;49.760;8.646;2023-05-02T13:34:30;6.67;;;4.40;;
15077;SDS011;7638;49.760;8.646;2023-05-02T13:36:56;12.00;;;5.43;;
15077;SDS011;7638;49.760;8.646;2023-05-02T13:39:22;6.97;;;5.37;;
15077;SDS011;7638;49.760;8.646;2023-05-02T13:41:48;9.50;;;5.20;;
15077;SDS011;7638;49.760;8.646;2023-05-02T13:44:14;7.77;;;5.57;;
15077;SDS011;7638;49.760;8.646;2023-05-02T13:46:40;9.07;;;4.60;;
15077;SDS011;7638;49.760;8.646;2023-05-02T13:49:06;7.43;;;5.47;;
15077;SDS011;7638;49.760;8.646;2023-05-02T13:51:32;7.30;;;5.07;;
15077;SDS011;7638;49.760;8.646;2023-05-02T13:53:58;6.13;;;4.90;;
15077;SDS011;7638;49.760;8.646;2023-05-02T13:56:25;9.03;;;5.30;;
15077;SDS011;7638;49.760;8.646;2023-05-02T13:58:51;7.43;;;4.67;;
15077;SDS011;7638;49.760;8.646;2023-05-02T14:01:17;9.63;;;5.00;;
15077;SDS011;7638;49.760;8.646;2023-05-02T14:03:43;7.53;;;5.00;;
15077;SDS011;7638;49.760;8.646;2023-05-02T14:06:10;7.30;;;5.17;;
15077;SDS011;7638;49.760;8.646;2023-05-02T14:08:36;5.90;;;4.07;;
15077;SDS011;7638;49.760;8.646;2023-05-02T14:11:02;5.10;;;3.40;;
15077;SDS011;7638;49.760;8.646;2023-05-02T14:13:28;3.87;;;3.13;;
15077;SDS011;7638;49.760;8.646;2023-05-02T14:15:54;6.73;;;3.40;;
15077;SDS011;7638;49.760;8.646;2023-05-02T14:18:20;4.67;;;2.93;;
15077;SDS011;7638;49.760;8.646;2023-05-02T14:20:46;6.77;;;2.87;;
15077;SDS011;7638;49.760;8.646;2023-05-02T14:23:12;3.93;;;2.73;;
15077;SDS011;7638;49.760;8.646;2023-05-02T14:25:38;3.20;;;2.60;;
15077;SDS011;7638;49.760;8.646;2023-05-02T14:28:04;2.20;;;1.80;;
15077;SDS011;7638;49.760;8.646;2023-05-02T14:30:30;4.40;;;2.83;;
15077;SDS011;7638;49.760;8.646;2023-05-02T14:32:56;2.57;;;2.20;;
15077;SDS011;7638;49.760;8.646;2023-05-02T14:35:22;3.80;;;2.57;;
15077;SDS011;7638;49.760;8.646;2023-05-02T14:37:48;2.70;;;2.43;;
15077;SDS011;7638;49.760;8.646;2023-05-02T14:40:14;4.93;;;2.40;;
15077;SDS011;7638;49.760;8.646;2023-05-02T14:42:40;4.53;;;2.67;;
15077;SDS011;7638;49.760;8.646;2023-05-02T14:45:07;3.27;;;2.57;;
15077;SDS011;7638;49.760;8.646;2023-05-02T14:47:33;5.03;;;3.00;;
15077;SDS011;7638;49.760;8.646;2023-05-02T14:49:59;5.07;;;2.97;;
15077;SDS011;7638;49.760;8.646;2023-05-02T14:52:25;4.03;;;2.93;;
15077;SDS011;7638;49.760;8.646;2023-05-02T14:54:51;5.87;;;3.20;;
15077;SDS011;7638;49.760;8.646;2023-05-02T14:57:17;5.13;;;3.13;;
15077;SDS011;7638;49.760;8.646;2023-05-02T14:59:43;6.50;;;3.10;;
15077;SDS011;7638;49.760;8.646;2023-05-02T15:02:09;3.90;;;3.37;;
15077;SDS011;7638;49.760;8.646;2023-05-02T15:04:35;4.53;;;3.77;;
15077;SDS011;7638;49.760;8.646;2023-05-02T15:07:02;3.87;;;3.27;;
15077;SDS011;7638;49.760;8.646;2023-05-02T15:09:28;5.37;;;3.23;;
15077;SDS011;7638;49.760;8.646;2023-05-02T15:11:54;5.63;;;2.80;;
15077;SDS011;7638;49.760;8.646;2023-05-02T15:14:20;4.57;;;3.63;;
15077;SDS011;7638;49.760;8.646;2023-05-02T15:16:47;4.20;;;3.60;;
15077;SDS011;7638;49.760;8.646;2023-05-02T15:19:13;4.33;;;3.57;;
15077;SDS011;7638;49.760;8.646;2023-05-02T15:21:39;5.13;;;3.97;;
15077;SDS011;7638;49.760;8.646;2023-05-02T15:24:05;10.33;;;4.80;;
15077;SDS011;7638;49.760;8.646;2023-05-02T15:26:31;5.03;;;4.43;;
15077;SDS011;7638;49.760;8.646;2023-05-02T15:28:57;4.27;;;3.87;;
15077;SDS011;7638;49.760;8.646;2023-05-02T15:31:23;6.40;;;4.77;;
15077;SDS011;7638;49.760;8.646;2023-05-02T15:33:49;4.10;;;3.53;;
15077;SDS011;7638;49.760;8.646;2023-05-02T15:36:16;4.47;;;4.07;;
15077;SDS011;7638;49.760;8.646;2023-05-02T15:38:42;4.83;;;3.83;;
15077;SDS011;7638;49.760;8.646;2023-05-02T15:41:08;9.87;;;3.67;;
15077;SDS011;7638;49.760;8.646;2023-05-02T15:43:35;5.90;;;3.70;;
15077;SDS011;7638;49.760;8.646;2023-05-02T15:46:01;5.07;;;4.57;;
15077;SDS011;7638;49.760;8.646;2023-05-02T15:48:31;5.37;;;3.77;;
15077;SDS011;7638;49.760;8.646;2023-05-02T15:50:57;4.90;;;4.43;;
15077;SDS011;7638;49.760;8.646;2023-05-02T15:53:23;5.80;;;3.40;;
15077;SDS011;7638;49.760;8.646;2023-05-02T15:55:50;4.40;;;4.00;;
15077;SDS011;7638;49.760;8.646;2023-05-02T15:58:17;4.90;;;3.80;;
15077;SDS011;7638;49.760;8.646;2023-05-02T16:00:44;4.60;;;3.90;;
15077;SDS011;7638;49.760;8.646;2023-05-02T16:03:11;4.43;;;3.73;;
15077;SDS011;7638;49.760;8.646;2023-05-02T16:05:38;4.33;;;3.90;;
15077;SDS011;7638;49.760;8.646;2023-05-02T16:08:04;4.43;;;3.50;;
15077;SDS011;7638;49.760;8.646;2023-05-02T16:10:30;4.90;;;4.17;;